Western Trident — 3FE09 — position and weather

sailwx.info

Track history (hours):
 
Tides and Currents Weather Stations Pressure Air Temp Water Temp Dewpoint Dewpoint Depression Visibility Wind Speed Wind Dir Waves Ship Positions

Western Trident

Last reported at 2014-Nov-13 17:34 UTC. Time now 2014-Nov-22 02:47 UTC.
Position N 50°30' W 000°08'.
Warning: this ship's position is 8 days out of date.

Length 95 m; draft 8.3 m.

Type: Other ship. MMSI: 357269000.

Date/timePositionNaut miles runAvg speedWind from/ knotsBaromVisibWave heightAir tempDewpointWater temp
2014-Nov-13 17:34N 50°30' W 000°08'1312.4
2014-Nov-13 16:33N 50°33' E 000°11'1211.7
2014-Nov-13 15:33N 50°36' E 000°29'1111.0
2014-Nov-13 14:34N 50°42' E 000°44'1010.5
2014-Nov-13 13:34N 50°48' E 000°57'8 8.4
2014-Nov-13 12:34N 50°53' E 001°07'1010.2
2014-Nov-13 11:34N 50°60' E 001°20'1111.3
2014-Nov-13 10:34N 51°07' E 001°34'1010.0
2014-Nov-13 09:34N 51°14' E 001°45'9 9.0
2014-Nov-13 08:34N 51°21' E 001°53'9 8.5
2014-Nov-13 07:33N 51°29' E 001°60'9 9.1
2014-Nov-13 06:33N 51°36' E 002°09'9 8.7
2014-Nov-13 05:32N 51°42' E 002°18'20 9.4
2014-Nov-13 03:26N 51°58' E 002°39'2310.1
2014-Nov-13 01:09N 52°14' E 003°05'1910.6
2014-Nov-12 23:20N 52°26' E 003°29'810.7
2014-Nov-12 22:34N 52°30' E 003°42'1010.0
2014-Nov-12 21:34N 52°31' E 003°58'9 9.5
2014-Nov-12 20:34N 52°31' E 004°13'7 6.9
2014-Nov-12 19:34N 52°29' E 004°25'5 5.0
2014-Nov-12 18:33N 52°28' E 004°32'1 1.0
2014-Nov-12 17:31N 52°28' E 004°34'0 0.0
2014-Nov-12 16:31N 52°28' E 004°34'0 0.0
2014-Nov-12 15:31N 52°28' E 004°34'0 0.0
2014-Nov-12 14:31N 52°28' E 004°34'0 0.0
2014-Nov-12 13:31N 52°28' E 004°34'0 0.0
2014-Nov-12 12:31N 52°28' E 004°34'0 0.0
2014-Nov-12 11:31N 52°28' E 004°34'0 0.0
2014-Nov-12 10:31N 52°28' E 004°34'0 0.0
2014-Nov-12 09:31N 52°28' E 004°34'0 0.0
2014-Nov-12 08:31N 52°28' E 004°34'0 0.0
2014-Nov-12 07:31N 52°28' E 004°34'0 0.0
2014-Nov-12 06:31N 52°28' E 004°34'0 0.0
2014-Nov-12 05:31N 52°28' E 004°34'0 0.0
2014-Nov-12 04:31N 52°28' E 004°34'0 0.0
2014-Nov-12 03:31N 52°28' E 004°34'0 0.0
2014-Nov-12 02:31N 52°28' E 004°34'0 0.0
2014-Nov-12 01:31N 52°28' E 004°34'0 0.0
2014-Nov-12 00:31N 52°28' E 004°34'0 0.0
2014-Nov-11 23:31N 52°28' E 004°34'0 0.0
2014-Nov-11 22:31N 52°28' E 004°34'0 0.0
2014-Nov-11 21:31N 52°28' E 004°34'0 0.0
2014-Nov-11 20:31N 52°28' E 004°34'0 0.0
2014-Nov-11 19:31N 52°28' E 004°34'0 0.0
2014-Nov-11 18:31N 52°28' E 004°34'0 0.0
2014-Nov-11 17:31N 52°28' E 004°34'0 0.0
2014-Nov-11 16:31N 52°28' E 004°34'0 0.0
2014-Nov-11 15:31N 52°28' E 004°34'0 0.0
2014-Nov-11 14:31N 52°28' E 004°34'0 0.0
2014-Nov-11 13:28N 52°28' E 004°34'0 0.0
2014-Nov-11 12:31N 52°28' E 004°34'0 0.0
2014-Nov-11 11:31N 52°28' E 004°34'0 0.0
2014-Nov-11 10:31N 52°28' E 004°34'0 0.0
2014-Nov-11 09:31N 52°28' E 004°34'0 0.0
2014-Nov-11 08:31N 52°28' E 004°34'0 0.0
2014-Nov-11 07:31N 52°28' E 004°34'0 0.0
2014-Nov-11 06:31N 52°28' E 004°34'0 0.0
2014-Nov-11 05:31N 52°28' E 004°34'0 0.0
2014-Nov-11 04:31N 52°28' E 004°34'0 0.0
2014-Nov-11 03:31N 52°28' E 004°34'0 0.0
2014-Nov-11 02:31N 52°28' E 004°34'0 0.0
2014-Nov-11 01:31N 52°28' E 004°34'0 0.0
2014-Nov-11 00:31N 52°28' E 004°34'0 0.0
2014-Nov-10 23:31N 52°28' E 004°34'0 0.0
2014-Nov-10 22:31N 52°28' E 004°34'0 0.0
2014-Nov-10 21:31N 52°28' E 004°34'0 0.0
2014-Nov-10 20:31N 52°28' E 004°34'0 0.0
2014-Nov-10 19:31N 52°28' E 004°34'0 0.0
2014-Nov-10 18:31N 52°28' E 004°34'0 0.0
2014-Nov-10 17:31N 52°28' E 004°34'0 0.0
2014-Nov-10 16:31N 52°28' E 004°34'0 0.0
2014-Nov-10 15:31N 52°28' E 004°34'0 0.0
2014-Nov-10 14:31N 52°28' E 004°34'0 0.0
2014-Nov-10 13:31N 52°28' E 004°34'0 0.0
2014-Nov-10 12:31N 52°28' E 004°34'0 0.0
2014-Nov-10 11:31N 52°28' E 004°34'0 0.0
2014-Nov-10 10:31N 52°28' E 004°34'0 0.0
2014-Nov-10 09:31N 52°28' E 004°34'0 0.0
2014-Nov-10 08:31N 52°28' E 004°34'0 0.0
2014-Nov-10 07:31N 52°28' E 004°34'0 0.0
2014-Nov-10 06:31N 52°28' E 004°34'0 0.0
2014-Nov-10 05:31N 52°28' E 004°34'0 0.0
2014-Nov-10 04:31N 52°28' E 004°34'0 0.0
2014-Nov-10 03:31N 52°28' E 004°34'0 0.0
2014-Nov-10 02:31N 52°28' E 004°34'0 0.0
2014-Nov-10 01:31N 52°28' E 004°34'0 0.0
2014-Nov-10 00:31N 52°28' E 004°34'0 0.0
2014-Nov-09 23:31N 52°28' E 004°34'0 0.0
2014-Nov-09 22:31N 52°28' E 004°34'0 0.0
2014-Nov-09 21:31N 52°28' E 004°34'0 0.0
2014-Nov-09 20:31N 52°28' E 004°34'0 0.0
2014-Nov-09 19:31N 52°28' E 004°34'0 0.0
2014-Nov-09 18:31N 52°28' E 004°34'0 0.0
2014-Nov-09 17:31N 52°28' E 004°34'0 0.0
2014-Nov-09 16:31N 52°28' E 004°34'0 0.0
2014-Nov-09 15:31N 52°28' E 004°34'0 0.0
2014-Nov-09 14:31N 52°28' E 004°34'0 0.0
2014-Nov-09 13:31N 52°28' E 004°34'0 0.0
2014-Nov-09 12:31N 52°28' E 004°34'0 0.0
2014-Nov-09 11:31N 52°28' E 004°34'0 0.0
2014-Nov-09 10:31N 52°28' E 004°34'0 0.0
2014-Nov-09 09:31N 52°28' E 004°34'0 0.0
2014-Nov-09 08:31N 52°28' E 004°34'0 0.0
2014-Nov-09 07:31N 52°28' E 004°34'0 0.0
2014-Nov-09 06:31N 52°28' E 004°34'0 0.0
2014-Nov-09 05:31N 52°28' E 004°34'0 0.0
2014-Nov-09 04:31N 52°28' E 004°34'0 0.0
2014-Nov-09 03:31N 52°28' E 004°34'0 0.0
2014-Nov-09 02:31N 52°28' E 004°34'0 0.0
2014-Nov-09 01:31N 52°28' E 004°34'0 0.0
2014-Nov-09 00:31N 52°28' E 004°34'0 0.0
2014-Nov-08 23:31N 52°28' E 004°34'0 0.0
2014-Nov-08 22:31N 52°28' E 004°34'0 0.0
2014-Nov-08 21:31N 52°28' E 004°34'0 0.0
2014-Nov-08 20:28N 52°28' E 004°34'0 0.0
2014-Nov-08 19:31N 52°28' E 004°34'0 0.0
2014-Nov-08 18:31N 52°28' E 004°34'0 0.0
2014-Nov-08 17:31N 52°28' E 004°34'0 0.0
2014-Nov-08 16:31N 52°28' E 004°34'0 0.0
2014-Nov-08 15:31N 52°28' E 004°34'0 0.0
2014-Nov-08 14:31N 52°28' E 004°34'0 0.0
2014-Nov-08 13:31N 52°28' E 004°34'0 0.0
2014-Nov-08 12:31N 52°28' E 004°34'0 0.0
2014-Nov-08 11:31N 52°28' E 004°34'0 0.0
2014-Nov-08 10:31N 52°28' E 004°34'0 0.0
2014-Nov-08 09:31N 52°28' E 004°34'0 0.0
2014-Nov-08 08:32N 52°28' E 004°34'0 0.0
2014-Nov-08 07:32N 52°28' E 004°34'0 0.0
2014-Nov-08 06:32N 52°28' E 004°34'0 0.0
2014-Nov-08 05:32N 52°28' E 004°34'0 0.0
2014-Nov-08 04:32N 52°28' E 004°34'0 0.0
2014-Nov-08 03:32N 52°28' E 004°34'0 0.0
2014-Nov-08 02:32N 52°28' E 004°34'0 0.0
2014-Nov-08 01:32N 52°28' E 004°34'0 0.0
2014-Nov-08 00:32N 52°28' E 004°34'0 0.0
2014-Nov-07 23:32N 52°28' E 004°34'0 0.0
2014-Nov-07 22:32N 52°28' E 004°34'0 0.0
2014-Nov-07 21:32N 52°28' E 004°34'0 0.0
2014-Nov-07 20:32N 52°28' E 004°34'0 0.0
2014-Nov-07 19:32N 52°28' E 004°34'0 0.0
2014-Nov-07 18:32N 52°28' E 004°34'0 0.0
2014-Nov-07 17:32N 52°28' E 004°34'0 0.0
2014-Nov-07 16:32N 52°28' E 004°34'0 0.0
2014-Nov-07 15:32N 52°28' E 004°34'0 0.0
2014-Nov-07 14:32N 52°28' E 004°34'0 0.0
2014-Nov-07 13:32N 52°28' E 004°34'0 0.0
2014-Nov-07 12:32N 52°28' E 004°34'0 0.0
2014-Nov-07 11:32N 52°28' E 004°34'0 0.0
2014-Nov-07 10:32N 52°28' E 004°34'0 0.0
2014-Nov-07 09:32N 52°28' E 004°34'0 0.0
2014-Nov-07 08:32N 52°28' E 004°34'0 0.0
2014-Nov-07 07:32N 52°28' E 004°34'0 0.0
2014-Nov-07 06:32N 52°28' E 004°34'0 0.0
2014-Nov-07 05:32N 52°28' E 004°34'0 0.0
2014-Nov-07 04:32N 52°28' E 004°34'0 0.0
2014-Nov-07 03:32N 52°28' E 004°34'0 0.0
2014-Nov-07 02:32N 52°28' E 004°34'0 0.0
2014-Nov-07 01:32N 52°28' E 004°34'0 0.0
2014-Nov-07 00:32N 52°28' E 004°34'0 0.0
2014-Nov-06 23:32N 52°28' E 004°34'0 0.0
2014-Nov-06 22:32N 52°28' E 004°34'0 0.0
2014-Nov-06 21:32N 52°28' E 004°34'0 0.0
2014-Nov-06 20:32N 52°28' E 004°34'0 0.0
2014-Nov-06 19:32N 52°28' E 004°34'0 0.0
2014-Nov-06 18:32N 52°28' E 004°34'0 0.0
2014-Nov-06 17:32N 52°28' E 004°34'0 0.0
2014-Nov-06 16:32N 52°28' E 004°34'0 0.0
2014-Nov-06 15:32N 52°28' E 004°34'0 0.0
2014-Nov-06 14:32N 52°28' E 004°34'0 0.0
2014-Nov-06 13:31N 52°28' E 004°34'0 0.0
2014-Nov-06 12:31N 52°28' E 004°34'0 0.0
2014-Nov-06 11:31N 52°28' E 004°34'0 0.0
2014-Nov-06 10:31N 52°28' E 004°34'0 0.0
2014-Nov-06 09:31N 52°28' E 004°34'0 0.0
2014-Nov-06 08:31N 52°28' E 004°34'0 0.0
2014-Nov-06 07:31N 52°28' E 004°34'0 0.0
2014-Nov-06 05:31N 52°28' E 004°34'0 0.0
2014-Nov-06 04:31N 52°28' E 004°34'0 0.0
2014-Nov-06 03:31N 52°28' E 004°34'0 0.0
2014-Nov-06 02:31N 52°28' E 004°34'0 0.0
2014-Nov-06 01:31N 52°28' E 004°34'0 0.0
2014-Nov-06 00:31N 52°28' E 004°34'0 0.0
2014-Nov-05 23:31N 52°28' E 004°34'0 0.0
2014-Nov-05 22:31N 52°28' E 004°34'0 0.0
2014-Nov-05 21:31N 52°28' E 004°34'0 0.0
2014-Nov-05 20:31N 52°28' E 004°34'0 0.0
2014-Nov-05 19:31N 52°28' E 004°34'0 0.0
2014-Nov-05 18:31N 52°28' E 004°34'0 0.0
2014-Nov-05 17:31N 52°28' E 004°34'0 0.0
2014-Nov-05 16:31N 52°28' E 004°34'0 0.0
2014-Nov-05 15:31N 52°28' E 004°34'0 0.0
2014-Nov-05 14:31N 52°28' E 004°34'0 0.0
2014-Nov-05 13:31N 52°28' E 004°34'0 0.0
2014-Nov-05 12:31N 52°28' E 004°34'0 0.0
2014-Nov-05 11:31N 52°28' E 004°34'0 0.0
2014-Nov-05 10:31N 52°28' E 004°34'0 0.0
2014-Nov-05 09:31N 52°28' E 004°34'0 0.0
2014-Nov-05 08:31N 52°28' E 004°34'0 0.0
2014-Nov-05 07:33N 52°28' E 004°34'4 3.5
2014-Nov-05 06:33N 52°28' E 004°28'8 8.4
2014-Nov-05 05:34N 52°29' E 004°15'7 7.2
2014-Nov-05 04:33N 52°34' E 004°06'8 8.1
2014-Nov-05 03:33N 52°41' E 004°01'8 8.4
2014-Nov-05 02:33N 52°50' E 003°58'8 8.4
2014-Nov-05 01:33N 52°58' E 004°02'8 8.0
2014-Nov-05 00:33N 53°03' E 004°12'8 8.3
2014-Nov-04 23:32N 53°08' E 004°23'17 8.2
2014-Nov-04 21:29N 53°24' E 004°32'10 8.6
2014-Nov-04 20:17N 53°34' E 004°38'8 8.6
2014-Nov-04 19:19N 53°42' E 004°42'7 8.7
2014-Nov-04 18:33N 53°48' E 004°46'8 8.5
2014-Nov-04 17:34N 53°56' E 004°51'9 8.5
2014-Nov-04 16:32N 54°04' E 004°56'  
Track history (hours):
 
Tides and Currents Weather Stations Pressure Air Temp Water Temp Dewpoint Dewpoint Depression Visibility Wind Speed Wind Dir Waves Ship Positions

Western Trident

Last reported at 2014-Nov-13 17:34 UTC. Time now 2014-Nov-22 02:47 UTC.
Position N 50°30' W 000°08'.
Warning: this ship's position is 8 days out of date.

Length 95 m; draft 8.3 m.

Type: Other ship. MMSI: 357269000.

Date/timePositionNaut miles runAvg speedWind from/ knotsBaromVisibWave heightAir tempDewpointWater temp
2014-Nov-13 17:34N 50°30' W 000°08'1312.4
2014-Nov-13 16:33N 50°33' E 000°11'1211.7
2014-Nov-13 15:33N 50°36' E 000°29'1111.0
2014-Nov-13 14:34N 50°42' E 000°44'1010.5
2014-Nov-13 13:34N 50°48' E 000°57'8 8.4
2014-Nov-13 12:34N 50°53' E 001°07'1010.2
2014-Nov-13 11:34N 50°60' E 001°20'1111.3
2014-Nov-13 10:34N 51°07' E 001°34'1010.0
2014-Nov-13 09:34N 51°14' E 001°45'9 9.0
2014-Nov-13 08:34N 51°21' E 001°53'9 8.5
2014-Nov-13 07:33N 51°29' E 001°60'9 9.1
2014-Nov-13 06:33N 51°36' E 002°09'9 8.7
2014-Nov-13 05:32N 51°42' E 002°18'20 9.4
2014-Nov-13 03:26N 51°58' E 002°39'2310.1
2014-Nov-13 01:09N 52°14' E 003°05'1910.6
2014-Nov-12 23:20N 52°26' E 003°29'810.7
2014-Nov-12 22:34N 52°30' E 003°42'1010.0
2014-Nov-12 21:34N 52°31' E 003°58'9 9.5
2014-Nov-12 20:34N 52°31' E 004°13'7 6.9
2014-Nov-12 19:34N 52°29' E 004°25'5 5.0
2014-Nov-12 18:33N 52°28' E 004°32'1 1.0
2014-Nov-12 17:31N 52°28' E 004°34'0 0.0
2014-Nov-12 16:31N 52°28' E 004°34'0 0.0
2014-Nov-12 15:31N 52°28' E 004°34'0 0.0
2014-Nov-12 14:31N 52°28' E 004°34'0 0.0
2014-Nov-12 13:31N 52°28' E 004°34'0 0.0
2014-Nov-12 12:31N 52°28' E 004°34'0 0.0
2014-Nov-12 11:31N 52°28' E 004°34'0 0.0
2014-Nov-12 10:31N 52°28' E 004°34'0 0.0
2014-Nov-12 09:31N 52°28' E 004°34'0 0.0
2014-Nov-12 08:31N 52°28' E 004°34'0 0.0
2014-Nov-12 07:31N 52°28' E 004°34'0 0.0
2014-Nov-12 06:31N 52°28' E 004°34'0 0.0
2014-Nov-12 05:31N 52°28' E 004°34'0 0.0
2014-Nov-12 04:31N 52°28' E 004°34'0 0.0
2014-Nov-12 03:31N 52°28' E 004°34'0 0.0
2014-Nov-12 02:31N 52°28' E 004°34'0 0.0
2014-Nov-12 01:31N 52°28' E 004°34'0 0.0
2014-Nov-12 00:31N 52°28' E 004°34'0 0.0
2014-Nov-11 23:31N 52°28' E 004°34'0 0.0
2014-Nov-11 22:31N 52°28' E 004°34'0 0.0
2014-Nov-11 21:31N 52°28' E 004°34'0 0.0
2014-Nov-11 20:31N 52°28' E 004°34'0 0.0
2014-Nov-11 19:31N 52°28' E 004°34'0 0.0
2014-Nov-11 18:31N 52°28' E 004°34'0 0.0
2014-Nov-11 17:31N 52°28' E 004°34'0 0.0
2014-Nov-11 16:31N 52°28' E 004°34'0 0.0
2014-Nov-11 15:31N 52°28' E 004°34'0 0.0
2014-Nov-11 14:31N 52°28' E 004°34'0 0.0
2014-Nov-11 13:28N 52°28' E 004°34'0 0.0
2014-Nov-11 12:31N 52°28' E 004°34'0 0.0
2014-Nov-11 11:31N 52°28' E 004°34'0 0.0
2014-Nov-11 10:31N 52°28' E 004°34'0 0.0
2014-Nov-11 09:31N 52°28' E 004°34'0 0.0
2014-Nov-11 08:31N 52°28' E 004°34'0 0.0
2014-Nov-11 07:31N 52°28' E 004°34'0 0.0
2014-Nov-11 06:31N 52°28' E 004°34'0 0.0
2014-Nov-11 05:31N 52°28' E 004°34'0 0.0
2014-Nov-11 04:31N 52°28' E 004°34'0 0.0
2014-Nov-11 03:31N 52°28' E 004°34'0 0.0
2014-Nov-11 02:31N 52°28' E 004°34'0 0.0
2014-Nov-11 01:31N 52°28' E 004°34'0 0.0
2014-Nov-11 00:31N 52°28' E 004°34'0 0.0
2014-Nov-10 23:31N 52°28' E 004°34'0 0.0
2014-Nov-10 22:31N 52°28' E 004°34'0 0.0
2014-Nov-10 21:31N 52°28' E 004°34'0 0.0
2014-Nov-10 20:31N 52°28' E 004°34'0 0.0
2014-Nov-10 19:31N 52°28' E 004°34'0 0.0
2014-Nov-10 18:31N 52°28' E 004°34'0 0.0
2014-Nov-10 17:31N 52°28' E 004°34'0 0.0
2014-Nov-10 16:31N 52°28' E 004°34'0 0.0
2014-Nov-10 15:31N 52°28' E 004°34'0 0.0
2014-Nov-10 14:31N 52°28' E 004°34'0 0.0
2014-Nov-10 13:31N 52°28' E 004°34'0 0.0
2014-Nov-10 12:31N 52°28' E 004°34'0 0.0
2014-Nov-10 11:31N 52°28' E 004°34'0 0.0
2014-Nov-10 10:31N 52°28' E 004°34'0 0.0
2014-Nov-10 09:31N 52°28' E 004°34'0 0.0
2014-Nov-10 08:31N 52°28' E 004°34'0 0.0
2014-Nov-10 07:31N 52°28' E 004°34'0 0.0
2014-Nov-10 06:31N 52°28' E 004°34'0 0.0
2014-Nov-10 05:31N 52°28' E 004°34'0 0.0
2014-Nov-10 04:31N 52°28' E 004°34'0 0.0
2014-Nov-10 03:31N 52°28' E 004°34'0 0.0
2014-Nov-10 02:31N 52°28' E 004°34'0 0.0
2014-Nov-10 01:31N 52°28' E 004°34'0 0.0
2014-Nov-10 00:31N 52°28' E 004°34'0 0.0
2014-Nov-09 23:31N 52°28' E 004°34'0 0.0
2014-Nov-09 22:31N 52°28' E 004°34'0 0.0
2014-Nov-09 21:31N 52°28' E 004°34'0 0.0
2014-Nov-09 20:31N 52°28' E 004°34'0 0.0
2014-Nov-09 19:31N 52°28' E 004°34'0 0.0
2014-Nov-09 18:31N 52°28' E 004°34'0 0.0
2014-Nov-09 17:31N 52°28' E 004°34'0 0.0
2014-Nov-09 16:31N 52°28' E 004°34'0 0.0
2014-Nov-09 15:31N 52°28' E 004°34'0 0.0
2014-Nov-09 14:31N 52°28' E 004°34'0 0.0
2014-Nov-09 13:31N 52°28' E 004°34'0 0.0
2014-Nov-09 12:31N 52°28' E 004°34'0 0.0
2014-Nov-09 11:31N 52°28' E 004°34'0 0.0
2014-Nov-09 10:31N 52°28' E 004°34'0 0.0
2014-Nov-09 09:31N 52°28' E 004°34'0 0.0
2014-Nov-09 08:31N 52°28' E 004°34'0 0.0
2014-Nov-09 07:31N 52°28' E 004°34'0 0.0
2014-Nov-09 06:31N 52°28' E 004°34'0 0.0
2014-Nov-09 05:31N 52°28' E 004°34'0 0.0
2014-Nov-09 04:31N 52°28' E 004°34'0 0.0
2014-Nov-09 03:31N 52°28' E 004°34'0 0.0
2014-Nov-09 02:31N 52°28' E 004°34'0 0.0
2014-Nov-09 01:31N 52°28' E 004°34'0 0.0
2014-Nov-09 00:31N 52°28' E 004°34'0 0.0
2014-Nov-08 23:31N 52°28' E 004°34'0 0.0
2014-Nov-08 22:31N 52°28' E 004°34'0 0.0
2014-Nov-08 21:31N 52°28' E 004°34'0 0.0
2014-Nov-08 20:28N 52°28' E 004°34'0 0.0
2014-Nov-08 19:31N 52°28' E 004°34'0 0.0
2014-Nov-08 18:31N 52°28' E 004°34'0 0.0
2014-Nov-08 17:31N 52°28' E 004°34'0 0.0
2014-Nov-08 16:31N 52°28' E 004°34'0 0.0
2014-Nov-08 15:31N 52°28' E 004°34'0 0.0
2014-Nov-08 14:31N 52°28' E 004°34'0 0.0
2014-Nov-08 13:31N 52°28' E 004°34'0 0.0
2014-Nov-08 12:31N 52°28' E 004°34'0 0.0
2014-Nov-08 11:31N 52°28' E 004°34'0 0.0
2014-Nov-08 10:31N 52°28' E 004°34'0 0.0
2014-Nov-08 09:31N 52°28' E 004°34'0 0.0
2014-Nov-08 08:32N 52°28' E 004°34'0 0.0
2014-Nov-08 07:32N 52°28' E 004°34'0 0.0
2014-Nov-08 06:32N 52°28' E 004°34'0 0.0
2014-Nov-08 05:32N 52°28' E 004°34'0 0.0
2014-Nov-08 04:32N 52°28' E 004°34'0 0.0
2014-Nov-08 03:32N 52°28' E 004°34'0 0.0
2014-Nov-08 02:32N 52°28' E 004°34'0 0.0
2014-Nov-08 01:32N 52°28' E 004°34'0 0.0
2014-Nov-08 00:32N 52°28' E 004°34'0 0.0
2014-Nov-07 23:32N 52°28' E 004°34'0 0.0
2014-Nov-07 22:32N 52°28' E 004°34'0 0.0
2014-Nov-07 21:32N 52°28' E 004°34'0 0.0
2014-Nov-07 20:32N 52°28' E 004°34'0 0.0
2014-Nov-07 19:32N 52°28' E 004°34'0 0.0
2014-Nov-07 18:32N 52°28' E 004°34'0 0.0
2014-Nov-07 17:32N 52°28' E 004°34'0 0.0
2014-Nov-07 16:32N 52°28' E 004°34'0 0.0
2014-Nov-07 15:32N 52°28' E 004°34'0 0.0
2014-Nov-07 14:32N 52°28' E 004°34'0 0.0
2014-Nov-07 13:32N 52°28' E 004°34'0 0.0
2014-Nov-07 12:32N 52°28' E 004°34'0 0.0
2014-Nov-07 11:32N 52°28' E 004°34'0 0.0
2014-Nov-07 10:32N 52°28' E 004°34'0 0.0
2014-Nov-07 09:32N 52°28' E 004°34'0 0.0
2014-Nov-07 08:32N 52°28' E 004°34'0 0.0
2014-Nov-07 07:32N 52°28' E 004°34'0 0.0
2014-Nov-07 06:32N 52°28' E 004°34'0 0.0
2014-Nov-07 05:32N 52°28' E 004°34'0 0.0
2014-Nov-07 04:32N 52°28' E 004°34'0 0.0
2014-Nov-07 03:32N 52°28' E 004°34'0 0.0
2014-Nov-07 02:32N 52°28' E 004°34'0 0.0
2014-Nov-07 01:32N 52°28' E 004°34'0 0.0
2014-Nov-07 00:32N 52°28' E 004°34'0 0.0
2014-Nov-06 23:32N 52°28' E 004°34'0 0.0
2014-Nov-06 22:32N 52°28' E 004°34'0 0.0
2014-Nov-06 21:32N 52°28' E 004°34'0 0.0
2014-Nov-06 20:32N 52°28' E 004°34'0 0.0
2014-Nov-06 19:32N 52°28' E 004°34'0 0.0
2014-Nov-06 18:32N 52°28' E 004°34'0 0.0
2014-Nov-06 17:32N 52°28' E 004°34'0 0.0
2014-Nov-06 16:32N 52°28' E 004°34'0 0.0
2014-Nov-06 15:32N 52°28' E 004°34'0 0.0
2014-Nov-06 14:32N 52°28' E 004°34'0 0.0
2014-Nov-06 13:31N 52°28' E 004°34'0 0.0
2014-Nov-06 12:31N 52°28' E 004°34'0 0.0
2014-Nov-06 11:31N 52°28' E 004°34'0 0.0
2014-Nov-06 10:31N 52°28' E 004°34'0 0.0
2014-Nov-06 09:31N 52°28' E 004°34'0 0.0
2014-Nov-06 08:31N 52°28' E 004°34'0 0.0
2014-Nov-06 07:31N 52°28' E 004°34'0 0.0
2014-Nov-06 05:31N 52°28' E 004°34'0 0.0
2014-Nov-06 04:31N 52°28' E 004°34'0 0.0
2014-Nov-06 03:31N 52°28' E 004°34'0 0.0
2014-Nov-06 02:31N 52°28' E 004°34'0 0.0
2014-Nov-06 01:31N 52°28' E 004°34'0 0.0
2014-Nov-06 00:31N 52°28' E 004°34'0 0.0
2014-Nov-05 23:31N 52°28' E 004°34'0 0.0
2014-Nov-05 22:31N 52°28' E 004°34'0 0.0
2014-Nov-05 21:31N 52°28' E 004°34'0 0.0
2014-Nov-05 20:31N 52°28' E 004°34'0 0.0
2014-Nov-05 19:31N 52°28' E 004°34'0 0.0
2014-Nov-05 18:31N 52°28' E 004°34'0 0.0
2014-Nov-05 17:31N 52°28' E 004°34'0 0.0
2014-Nov-05 16:31N 52°28' E 004°34'0 0.0
2014-Nov-05 15:31N 52°28' E 004°34'0 0.0
2014-Nov-05 14:31N 52°28' E 004°34'0 0.0
2014-Nov-05 13:31N 52°28' E 004°34'0 0.0
2014-Nov-05 12:31N 52°28' E 004°34'0 0.0
2014-Nov-05 11:31N 52°28' E 004°34'0 0.0
2014-Nov-05 10:31N 52°28' E 004°34'0 0.0
2014-Nov-05 09:31N 52°28' E 004°34'0 0.0
2014-Nov-05 08:31N 52°28' E 004°34'0 0.0
2014-Nov-05 07:33N 52°28' E 004°34'4 3.5
2014-Nov-05 06:33N 52°28' E 004°28'8 8.4
2014-Nov-05 05:34N 52°29' E 004°15'7 7.2
2014-Nov-05 04:33N 52°34' E 004°06'8 8.1
2014-Nov-05 03:33N 52°41' E 004°01'8 8.4
2014-Nov-05 02:33N 52°50' E 003°58'8 8.4
2014-Nov-05 01:33N 52°58' E 004°02'8 8.0
2014-Nov-05 00:33N 53°03' E 004°12'8 8.3
2014-Nov-04 23:32N 53°08' E 004°23'17 8.2
2014-Nov-04 21:29N 53°24' E 004°32'10 8.6
2014-Nov-04 20:17N 53°34' E 004°38'8 8.6
2014-Nov-04 19:19N 53°42' E 004°42'7 8.7
2014-Nov-04 18:33N 53°48' E 004°46'8 8.5
2014-Nov-04 17:34N 53°56' E 004°51'9 8.5
2014-Nov-04 16:32N 54°04' E 004°56'  

Dump ship's entire track history